Time;durP1;ratioP1;P1;durP2;ratioP2;P2;SDS_P1;SDS_P2;PMS_P1;PMS_P2;Temp;Humidity;BMP_temperature;BMP_pressure;BME280_temperature;BME280_humidity;BME280_pressure;Samples;Min_cycle;Max_cycle;Signal;HPM_P1;HPM_P2
2023/04/22 00:01:27;;;;;;;;;;;;;;;23.81;22.99;98056.41;5073852;28;19912;-84
2023/04/22 00:03:53;;;;;;;;;;;;;;;23.66;22.60;98054.34;5070419;28;19967;-85
2023/04/22 00:06:19;;;;;;;;;;;;;;;23.44;23.01;98053.19;5072181;28;20292;-85
2023/04/22 00:08:45;;;;;;;;;;;;;;;23.43;22.64;98055.22;5074078;28;20364;-85
2023/04/22 00:11:11;;;;;;;;;;;;;;;23.35;22.94;98056.56;5063060;28;19927;-85
2023/04/22 00:13:37;;;;;;;;;;;;;;;23.40;23.22;98055.28;5074060;28;19919;-85
2023/04/22 00:16:04;;;;;;;;;;;;;;;23.34;22.62;98061.38;5070483;28;19928;-85
2023/04/22 00:18:30;;;;;;;;;;;;;;;23.17;23.45;98053.28;5063461;28;19920;-85
2023/04/22 00:20:56;;;;;;;;;;;;;;;23.38;23.42;98050.09;5074555;28;20388;-85
2023/04/22 00:23:22;;;;;;;;;;;;;;;23.53;22.89;98050.59;5072927;28;19921;-85
2023/04/22 00:25:48;;;;;;;;;;;;;;;23.55;22.86;98054.56;5076631;28;19928;-85
2023/04/22 00:28:14;;;;;;;;;;;;;;;23.30;22.66;98051.41;5078048;28;20304;-85
2023/04/22 00:30:40;;;;;;;;;;;;;;;23.13;23.13;98050.53;5067048;28;19925;-85
2023/04/22 00:33:06;;;;;;;;;;;;;;;23.24;22.76;98050.34;5073849;28;20329;-85
2023/04/22 00:35:32;;;;;;;;;;;;;;;23.32;23.06;98052.56;5076532;28;19921;-85
2023/04/22 00:37:58;;;;;;;;;;;;;;;23.45;22.85;98049.16;5076018;28;19924;-84
2023/04/22 00:40:24;;;;;;;;;;;;;;;23.44;22.49;98044.78;5077018;28;20367;-85
2023/04/22 00:42:50;;;;;;;;;;;;;;;23.04;23.00;98046.72;5075228;28;19928;-85
2023/04/22 00:45:19;;;;;;;;;;;;;;;22.90;23.56;98044.97;5075534;28;19920;-85
2023/04/22 00:47:45;;;;;;;;;;;;;;;23.15;23.31;98050.88;5072040;28;19927;-85
2023/04/22 00:50:12;;;;;;;;;;;;;;;23.41;22.80;98046.41;5075313;28;19922;-85
2023/04/22 00:52:38;;;;;;;;;;;;;;;23.58;22.80;98045.28;5074123;28;19948;-85
2023/04/22 00:55:04;;;;;;;;;;;;;;;23.42;22.53;98050.81;5074263;28;20376;-85
2023/04/22 00:57:31;;;;;;;;;;;;;;;23.29;23.17;98055.47;5074521;28;20014;-85
2023/04/22 00:59:57;;;;;;;;;;;;;;;23.40;22.79;98047.66;5075632;28;20422;-85
2023/04/22 01:02:24;;;;;;;;;;;;;;;23.41;22.58;98049.22;5078157;28;20421;-85
2023/04/22 01:04:52;;;;;;;;;;;;;;;23.26;22.43;98047.91;5075802;28;20388;-84
2023/04/22 01:07:19;;;;;;;;;;;;;;;22.98;22.68;98051.22;5073080;28;20092;-85
2023/04/22 01:09:45;;;;;;;;;;;;;;;22.93;23.53;98046.91;5076258;28;19985;-85
2023/04/22 01:12:11;;;;;;;;;;;;;;;23.15;22.91;98047.31;5072480;28;19920;-85
2023/04/22 01:14:37;;;;;;;;;;;;;;;23.24;22.81;98048.31;5070205;28;19931;-84
2023/04/22 01:17:03;;;;;;;;;;;;;;;23.21;23.20;98052.00;5070567;28;19920;-85
2023/04/22 01:19:31;;;;;;;;;;;;;;;23.06;22.81;98047.06;5073187;28;20367;-85
2023/04/22 01:21:58;;;;;;;;;;;;;;;22.84;22.97;98054.28;5063091;28;19955;-85
2023/04/22 01:24:25;;;;;;;;;;;;;;;22.59;22.99;98054.69;5067859;28;19920;-85
2023/04/22 01:26:51;;;;;;;;;;;;;;;22.50;23.63;98046.81;5068697;28;19955;-85
2023/04/22 01:29:17;;;;;;;;;;;;;;;22.73;23.11;98053.69;5065708;28;19925;-85
2023/04/22 01:31:44;;;;;;;;;;;;;;;22.84;23.34;98052.28;5065851;28;19927;-85
2023/04/22 01:34:10;;;;;;;;;;;;;;;23.04;22.66;98053.09;5063771;28;19996;-85
2023/04/22 01:36:36;;;;;;;;;;;;;;;22.89;22.78;98056.59;5061669;28;19927;-85
2023/04/22 01:39:02;;;;;;;;;;;;;;;22.84;23.25;98057.88;5065263;28;21289;-85
2023/04/22 01:41:28;;;;;;;;;;;;;;;22.90;22.77;98058.16;5066880;28;20376;-84
2023/04/22 01:43:56;;;;;;;;;;;;;;;22.63;23.03;98061.03;5062321;28;20015;-85
2023/04/22 01:46:22;;;;;;;;;;;;;;;22.47;23.10;98056.06;5064025;28;19923;-85
2023/04/22 01:48:51;;;;;;;;;;;;;;;22.54;23.47;98055.91;5067773;28;19929;-85
2023/04/22 01:51:20;;;;;;;;;;;;;;;22.78;23.13;98056.00;5063484;28;19917;-85
2023/04/22 01:53:47;;;;;;;;;;;;;;;22.79;23.29;98058.34;5067972;28;20338;-85
2023/04/22 01:56:13;;;;;;;;;;;;;;;22.98;23.04;98057.63;5066840;28;19924;-85
2023/04/22 01:58:39;;;;;;;;;;;;;;;23.11;22.80;98052.19;5087631;28;19924;-85
2023/04/22 02:01:05;;;;;;;;;;;;;;;23.02;22.68;98052.75;5079033;28;19921;-85
2023/04/22 02:03:31;;;;;;;;;;;;;;;22.81;22.89;98046.72;5083338;28;19925;-85
2023/04/22 02:05:57;;;;;;;;;;;;;;;22.49;22.82;98050.84;5071021;28;19916;-85
2023/04/22 02:08:23;;;;;;;;;;;;;;;22.37;23.59;98051.41;5064166;28;19994;-85
2023/04/22 02:10:49;;;;;;;;;;;;;;;22.28;23.45;98051.16;5069700;28;19928;-85
2023/04/22 02:13:15;;;;;;;;;;;;;;;22.43;23.75;98041.31;5067819;28;19924;-84
2023/04/22 02:15:41;;;;;;;;;;;;;;;22.66;23.12;98049.75;5062420;28;19964;-84
2023/04/22 02:18:09;;;;;;;;;;;;;;;22.47;22.81;98047.66;5066409;28;20009;-84
2023/04/22 02:20:35;;;;;;;;;;;;;;;22.23;23.18;98048.03;5065645;28;19917;-84
2023/04/22 02:23:01;;;;;;;;;;;;;;;22.27;23.40;98043.97;5068560;28;19916;-84
2023/04/22 02:25:28;;;;;;;;;;;;;;;22.62;23.06;98046.25;5060272;28;20442;-85
2023/04/22 02:27:54;;;;;;;;;;;;;;;22.64;23.55;98049.41;5061022;28;19923;-85
2023/04/22 02:30:20;;;;;;;;;;;;;;;22.77;23.42;98040.41;5066215;28;19970;-84
2023/04/22 02:32:46;;;;;;;;;;;;;;;22.57;23.30;98043.88;5070358;28;19927;-85
2023/04/22 02:35:12;;;;;;;;;;;;;;;22.60;23.15;98039.44;5060599;28;19917;-85
2023/04/22 02:37:38;;;;;;;;;;;;;;;22.69;23.06;98037.72;5068281;28;19920;-85
2023/04/22 02:40:06;;;;;;;;;;;;;;;22.79;22.84;98035.97;5069930;28;19927;-85
2023/04/22 02:42:32;;;;;;;;;;;;;;;22.87;22.82;98031.81;5096806;28;19929;-85
2023/04/22 02:44:58;;;;;;;;;;;;;;;22.97;23.00;98046.84;5074017;28;20402;-85
2023/04/22 02:47:24;;;;;;;;;;;;;;;23.05;23.05;98040.69;5070572;28;19927;-85
2023/04/22 02:49:50;;;;;;;;;;;;;;;23.16;22.54;98034.88;5065186;28;19992;-85
2023/04/22 02:52:16;;;;;;;;;;;;;;;22.96;22.41;98032.06;5069080;28;20362;-86
2023/04/22 02:54:42;;;;;;;;;;;;;;;22.58;22.76;98030.69;5062902;28;19925;-85
2023/04/22 02:57:08;;;;;;;;;;;;;;;22.65;22.77;98036.22;5069030;28;19924;-85
2023/04/22 02:59:35;;;;;;;;;;;;;;;22.72;22.81;98040.88;5070454;28;19928;-85
2023/04/22 03:02:01;;;;;;;;;;;;;;;22.85;22.69;98039.84;5073269;28;19935;-85
2023/04/22 03:04:27;;;;;;;;;;;;;;;22.95;22.23;98040.88;5073267;28;19921;-85
2023/04/22 03:06:53;;;;;;;;;;;;;;;22.58;22.74;98044.69;5064271;28;19928;-85
2023/04/22 03:09:19;;;;;;;;;;;;;;;22.26;23.01;98038.81;5059586;28;19931;-85
2023/04/22 03:11:45;;;;;;;;;;;;;;;22.36;23.01;98040.63;5072837;28;19921;-85
2023/04/22 03:14:11;;;;;;;;;;;;;;;22.41;22.82;98043.75;5077744;28;20015;-85
2023/04/22 03:16:37;;;;;;;;;;;;;;;22.55;22.62;98049.13;5100620;28;19920;-85
2023/04/22 03:19:03;;;;;;;;;;;;;;;22.61;22.74;98047.44;5069669;28;20372;-85
2023/04/22 03:21:31;;;;;;;;;;;;;;;22.70;22.48;98049.72;5088791;28;19928;-85
2023/04/22 03:23:57;;;;;;;;;;;;;;;22.64;22.28;98049.41;5082352;28;19939;-85
2023/04/22 03:26:23;;;;;;;;;;;;;;;22.55;22.39;98048.31;5090241;28;19931;-85
2023/04/22 03:28:49;;;;;;;;;;;;;;;22.61;22.81;98055.06;5065915;28;19970;-85
2023/04/22 03:31:15;;;;;;;;;;;;;;;22.75;22.25;98051.25;5071238;28;19917;-85
2023/04/22 03:33:41;;;;;;;;;;;;;;;22.63;22.33;98056.22;5070724;28;20296;-85
2023/04/22 03:36:07;;;;;;;;;;;;;;;22.52;22.78;98049.97;5072203;28;19917;-85
2023/04/22 03:38:33;;;;;;;;;;;;;;;22.66;22.72;98055.34;5057728;28;19920;-86
2023/04/22 03:40:59;;;;;;;;;;;;;;;22.79;22.48;98054.75;5071358;28;19927;-85
2023/04/22 03:43:25;;;;;;;;;;;;;;;22.86;22.25;98049.84;5071607;28;19920;-85
2023/04/22 03:45:51;;;;;;;;;;;;;;;22.92;22.39;98048.13;5075405;28;19923;-86
2023/04/22 03:48:17;;;;;;;;;;;;;;;22.73;22.63;98050.88;5074157;28;19928;-85
2023/04/22 03:50:43;;;;;;;;;;;;;;;22.71;22.93;98051.28;5074377;28;19928;-86
2023/04/22 03:53:09;;;;;;;;;;;;;;;22.77;22.98;98049.59;5071551;28;20300;-86
2023/04/22 03:55:35;;;;;;;;;;;;;;;22.99;23.21;98047.19;5072461;28;19920;-86
2023/04/22 03:58:01;;;;;;;;;;;;;;;23.10;22.79;98045.81;5061802;28;19972;-86
2023/04/22 04:00:27;;;;;;;;;;;;;;;23.13;23.02;98056.13;5075978;28;20001;-86
2023/04/22 04:02:53;;;;;;;;;;;;;;;23.22;23.13;98056.34;5071843;28;19971;-87
2023/04/22 04:05:19;;;;;;;;;;;;;;;23.45;22.54;98063.97;5073097;28;20332;-86
2023/04/22 04:07:45;;;;;;;;;;;;;;;23.46;23.18;98061.94;5071032;28;20015;-87
2023/04/22 04:10:11;;;;;;;;;;;;;;;23.62;23.33;98062.06;5072239;28;20008;-85
2023/04/22 04:12:37;;;;;;;;;;;;;;;23.75;23.32;98060.16;5071497;28;20019;-85
2023/04/22 04:15:03;;;;;;;;;;;;;;;23.93;23.50;98066.19;5082955;28;20383;-84
2023/04/22 04:17:30;;;;;;;;;;;;;;;24.09;23.28;98066.25;5059641;28;20023;-84
2023/04/22 04:19:56;;;;;;;;;;;;;;;24.24;23.27;98064.72;5071478;28;19963;-84
2023/04/22 04:22:22;;;;;;;;;;;;;;;24.40;23.34;98066.75;5073147;28;20299;-84
2023/04/22 04:24:48;;;;;;;;;;;;;;;24.48;22.99;98068.94;5073326;28;19924;-86
2023/04/22 04:27:14;;;;;;;;;;;;;;;24.22;22.67;98067.19;5077307;28;19924;-87
2023/04/22 04:29:41;;;;;;;;;;;;;;;23.94;24.07;98074.16;5070909;28;19952;-85
2023/04/22 04:32:07;;;;;;;;;;;;;;;24.14;23.95;98071.34;5069552;28;20358;-86
2023/04/22 04:34:33;;;;;;;;;;;;;;;24.37;24.11;98071.22;5069664;28;20028;-86
2023/04/22 04:36:59;;;;;;;;;;;;;;;24.48;23.18;98071.75;5071307;28;19929;-86
2023/04/22 04:39:28;;;;;;;;;;;;;;;24.24;23.46;98067.53;5068834;28;19928;-86
2023/04/22 04:41:54;;;;;;;;;;;;;;;23.94;24.56;98071.34;5068071;28;19927;-87
2023/04/22 04:44:20;;;;;;;;;;;;;;;23.99;24.76;98075.69;5077148;28;20295;-88
2023/04/22 04:46:47;;;;;;;;;;;;;;;24.25;25.31;98082.34;5070328;28;19935;-88
2023/04/22 04:49:13;;;;;;;;;;;;;;;24.67;24.92;98081.31;5067505;28;19920;-88
2023/04/22 04:51:39;;;;;;;;;;;;;;;24.80;24.42;98076.63;5068544;28;20418;-89
2023/04/22 04:54:05;;;;;;;;;;;;;;;24.62;24.63;98070.66;5069962;28;19926;-89
2023/04/22 04:56:31;;;;;;;;;;;;;;;24.56;25.72;98078.78;5067612;28;19933;-87
2023/04/22 04:58:57;;;;;;;;;;;;;;;24.53;24.99;98071.25;5065952;28;19928;-87
2023/04/22 05:01:23;;;;;;;;;;;;;;;24.50;25.09;98079.75;5069690;28;19932;-87
2023/04/22 05:03:49;;;;;;;;;;;;;;;24.59;25.37;98069.50;5059294;28;19972;-86
2023/04/22 05:06:15;;;;;;;;;;;;;;;24.76;26.19;98075.94;5074583;28;19921;-87
2023/04/22 05:08:41;;;;;;;;;;;;;;;24.95;25.34;98077.84;5073900;28;19923;-88
2023/04/22 05:11:07;;;;;;;;;;;;;;;25.13;25.84;98072.59;5074484;28;19929;-88
2023/04/22 05:13:33;;;;;;;;;;;;;;;25.36;26.29;98080.00;5069902;28;19931;-86
2023/04/22 05:15:59;;;;;;;;;;;;;;;25.42;26.76;98075.41;5068107;28;19925;-87
2023/04/22 05:18:25;;;;;;;;;;;;;;;25.62;25.42;98078.91;5069219;28;19929;-87
2023/04/22 05:20:51;;;;;;;;;;;;;;;25.75;25.38;98074.09;5069792;28;19955;-87
2023/04/22 05:23:18;;;;;;;;;;;;;;;25.71;25.70;98081.84;5073795;28;19928;-88
2023/04/22 05:25:44;;;;;;;;;;;;;;;25.69;25.29;98081.50;5071360;28;19939;-88
2023/04/22 05:28:10;;;;;;;;;;;;;;;25.85;24.86;98075.03;5070119;28;19925;-87
2023/04/22 05:30:36;;;;;;;;;;;;;;;25.69;25.26;98080.72;5069539;28;19954;-88
2023/04/22 05:33:02;;;;;;;;;;;;;;;25.58;24.36;98078.19;5071914;28;19920;-89
2023/04/22 05:35:28;;;;;;;;;;;;;;;25.65;24.77;98080.03;5072119;28;19921;-88
2023/04/22 05:37:54;;;;;;;;;;;;;;;26.12;23.95;98077.44;5084557;28;20367;-88
2023/04/22 05:40:20;;;;;;;;;;;;;;;26.01;23.48;98078.56;5077590;28;20372;-88
2023/04/22 05:42:46;;;;;;;;;;;;;;;25.22;24.64;98083.19;5066303;28;19921;-88
2023/04/22 05:45:12;;;;;;;;;;;;;;;25.33;24.14;98086.50;5082544;28;20281;-89
2023/04/22 05:47:38;;;;;;;;;;;;;;;25.63;24.86;98074.03;5074500;28;19921;-89
2023/04/22 05:50:05;;;;;;;;;;;;;;;25.93;23.06;98076.38;5099507;27;19932;-89
2023/04/22 05:52:31;;;;;;;;;;;;;;;25.88;25.79;98074.91;5074421;28;19927;-89
2023/04/22 05:54:57;;;;;;;;;;;;;;;25.95;26.10;98080.31;5074060;28;19927;-89
2023/04/22 05:57:23;;;;;;;;;;;;;;;26.03;23.45;98080.91;5064988;28;19925;-88
2023/04/22 05:59:49;;;;;;;;;;;;;;;25.29;24.02;98080.97;5070867;28;19922;-91
2023/04/22 06:02:15;;;;;;;;;;;;;;;25.67;24.61;98086.00;5060286;28;19925;-90
2023/04/22 06:04:41;;;;;;;;;;;;;;;26.02;24.18;98080.13;5074971;28;19926;-88
2023/04/22 06:07:07;;;;;;;;;;;;;;;26.66;23.38;98083.78;5071995;28;19930;-87
2023/04/22 06:09:33;;;;;;;;;;;;;;;26.59;22.86;98082.00;5063142;28;19920;-86
2023/04/22 06:12:00;;;;;;;;;;;;;;;27.16;23.23;98080.94;5066751;28;19921;-85
2023/04/22 06:14:26;;;;;;;;;;;;;;;26.81;24.02;98084.16;5072915;28;20015;-85
2023/04/22 06:16:52;;;;;;;;;;;;;;;26.76;24.16;98076.28;5066519;28;19966;-86
2023/04/22 06:19:18;;;;;;;;;;;;;;;27.12;24.93;98087.94;5074160;28;20348;-86
2023/04/22 06:21:45;;;;;;;;;;;;;;;27.66;24.64;98087.66;5070262;28;20379;-87
2023/04/22 06:24:11;;;;;;;;;;;;;;;27.82;24.13;98076.19;5069724;28;20022;-89
2023/04/22 06:26:37;;;;;;;;;;;;;;;28.00;24.69;98082.78;5071242;28;20359;-88
2023/04/22 06:29:04;;;;;;;;;;;;;;;28.10;22.90;98086.41;5063614;28;19912;-87
2023/04/22 06:31:30;;;;;;;;;;;;;;;27.62;24.42;98082.16;5070098;28;19924;-87
2023/04/22 06:33:57;;;;;;;;;;;;;;;26.60;25.54;98086.41;5070154;28;19970;-87
2023/04/22 06:36:23;;;;;;;;;;;;;;;26.27;25.85;98075.78;5073283;28;19927;-89
2023/04/22 06:38:49;;;;;;;;;;;;;;;27.40;24.41;98076.47;5073196;28;19917;-90
2023/04/22 06:41:15;;;;;;;;;;;;;;;27.92;22.63;98081.44;5083506;28;19928;-88
2023/04/22 06:43:41;;;;;;;;;;;;;;;28.02;25.82;98085.13;5071057;28;19928;-88
2023/04/22 06:46:08;;;;;;;;;;;;;;;28.32;21.85;98083.56;5067534;28;20059;-88
2023/04/22 06:48:34;;;;;;;;;;;;;;;28.36;22.14;98079.34;5069295;28;19939;-87
2023/04/22 06:51:00;;;;;;;;;;;;;;;28.31;25.09;98085.59;5067829;28;19977;-88
2023/04/22 06:53:26;;;;;;;;;;;;;;;29.02;21.34;98079.94;5074362;28;20329;-85
2023/04/22 06:55:53;;;;;;;;;;;;;;;28.54;24.94;98078.66;5046562;28;19924;-87
2023/04/22 06:58:20;;;;;;;;;;;;;;;29.23;24.00;98085.50;5065660;28;19936;-87
2023/04/22 07:00:46;;;;;;;;;;;;;;;29.73;24.06;98078.47;5067284;28;20390;-87
2023/04/22 07:03:12;;;;;;;;;;;;;;;30.01;25.22;98082.06;5069681;28;20307;-89
2023/04/22 07:05:38;;;;;;;;;;;;;;;30.27;22.67;98074.75;5068270;28;20422;-85
2023/04/22 07:08:04;;;;;;;;;;;;;;;30.11;23.77;98072.28;5072763;28;20326;-87
2023/04/22 07:10:30;;;;;;;;;;;;;;;30.04;19.84;98075.44;5067042;28;20007;-89
2023/04/22 07:12:56;;;;;;;;;;;;;;;29.63;23.95;98073.28;5069020;28;20058;-87
2023/04/22 07:15:23;;;;;;;;;;;;;;;29.61;23.95;98085.06;5067669;28;19973;-87
2023/04/22 07:17:49;;;;;;;;;;;;;;;29.89;23.09;98075.34;5068779;28;19921;-88
2023/04/22 07:20:15;;;;;;;;;;;;;;;29.83;22.15;98079.25;5070584;28;20376;-91
2023/04/22 07:22:41;;;;;;;;;;;;;;;29.67;22.34;98079.53;5072617;28;19920;-89
2023/04/22 07:25:07;;;;;;;;;;;;;;;29.56;24.26;98084.91;5064005;28;19974;-88
2023/04/22 07:27:35;;;;;;;;;;;;;;;29.39;21.59;98079.56;5069947;28;19924;-87
2023/04/22 07:30:02;;;;;;;;;;;;;;;29.51;24.72;98085.53;5067748;28;19969;-88
2023/04/22 07:32:28;;;;;;;;;;;;;;;30.19;23.29;98082.03;5068611;28;20376;-88
2023/04/22 07:34:54;;;;;;;;;;;;;;;30.34;21.75;98074.44;5069163;28;19963;-88
2023/04/22 07:37:21;;;;;;;;;;;;;;;29.47;21.41;98070.75;5069136;28;20408;-89
2023/04/22 07:39:47;;;;;;;;;;;;;;;29.48;21.70;98081.59;5072232;28;19943;-88
2023/04/22 07:42:13;;;;;;;;;;;;;;;29.74;24.11;98073.56;5070560;28;19955;-88
2023/04/22 07:44:39;;;;;;;;;;;;;;;30.09;21.14;98075.59;5068668;28;19927;-88
2023/04/22 07:47:07;;;;;;;;;;;;;;;30.13;23.71;98080.31;5072360;28;19912;-88
2023/04/22 07:49:33;;;;;;;;;;;;;;;30.73;22.28;98070.53;5070629;28;19946;-88
2023/04/22 07:51:59;;;;;;;;;;;;;;;30.83;21.48;98067.66;5071951;28;19920;-87
2023/04/22 07:54:25;;;;;;;;;;;;;;;30.58;23.11;98074.53;5068329;28;20011;-88
2023/04/22 07:56:51;;;;;;;;;;;;;;;31.03;21.82;98068.66;5065827;28;20024;-84
2023/04/22 07:59:17;;;;;;;;;;;;;;;31.03;24.20;98070.72;5061235;28;19921;-84
2023/04/22 08:01:45;;;;;;;;;;;;;;;31.23;23.33;98071.66;5072160;28;19970;-83
2023/04/22 08:04:11;;;;;;;;;;;;;;;31.65;23.22;98068.69;5071518;28;19928;-84
2023/04/22 08:06:37;;;;;;;;;;;;;;;31.76;21.43;98071.78;5063523;28;19979;-83
2023/04/22 08:09:03;;;;;;;;;;;;;;;30.84;18.81;98067.16;5067533;28;19921;-85
2023/04/22 08:11:29;;;;;;;;;;;;;;;30.89;22.81;98058.03;5069406;28;19932;-84
2023/04/22 08:13:55;;;;;;;;;;;;;;;31.29;20.81;98060.44;5073534;28;19920;-85
2023/04/22 08:16:21;;;;;;;;;;;;;;;31.34;22.19;98059.78;5065980;28;19924;-86
2023/04/22 08:18:47;;;;;;;;;;;;;;;28.39;27.69;98072.00;5069767;28;20109;-85
2023/04/22 08:21:13;;;;;;;;;;;;;;;29.15;21.57;98066.47;5069329;28;19960;-85
2023/04/22 08:23:39;;;;;;;;;;;;;;;29.49;21.96;98063.38;5071772;28;19971;-86
2023/04/22 08:26:07;;;;;;;;;;;;;;;29.22;23.31;98080.34;5072080;28;19932;-85
2023/04/22 08:28:33;;;;;;;;;;;;;;;29.64;20.14;98072.78;5071305;28;19936;-86
2023/04/22 08:30:59;;;;;;;;;;;;;;;30.19;22.25;98069.91;5072150;28;19982;-85
2023/04/22 08:33:25;;;;;;;;;;;;;;;30.84;22.37;98069.19;5068985;28;19925;-85
2023/04/22 08:35:51;;;;;;;;;;;;;;;31.08;22.74;98062.34;5072165;28;20291;-84
2023/04/22 08:38:17;;;;;;;;;;;;;;;31.15;18.95;98070.47;5062385;28;20438;-84
2023/04/22 08:40:45;;;;;;;;;;;;;;;30.78;19.35;98072.69;5066342;28;20367;-85
2023/04/22 08:43:11;;;;;;;;;;;;;;;31.32;20.94;98062.31;5076202;28;20368;-87
2023/04/22 08:45:38;;;;;;;;;;;;;;;31.49;20.89;98071.97;5105337;28;19920;-87
2023/04/22 08:48:04;;;;;;;;;;;;;;;31.66;18.92;98070.28;5068192;28;19920;-86
2023/04/22 08:50:31;;;;;;;;;;;;;;;31.73;20.20;98066.25;5069388;28;19917;-86
2023/04/22 08:52:57;;;;;;;;;;;;;;;32.12;22.33;98064.16;5073288;28;19946;-86
2023/04/22 08:55:24;;;;;;;;;;;;;;;32.41;19.77;98067.78;5073587;28;19916;-85
2023/04/22 08:57:50;;;;;;;;;;;;;;;32.26;18.01;98061.31;5064539;28;19925;-88
2023/04/22 09:00:17;;;;;;;;;;;;;;;32.11;21.16;98066.25;5065176;28;20058;-89
2023/04/22 09:02:45;;;;;;;;;;;;;;;32.16;18.33;98059.09;5076935;28;19916;-89
2023/04/22 09:05:12;;;;;;;;;;;;;;;31.81;21.19;98062.53;5073253;28;19928;-89
2023/04/22 09:07:44;;;;;;;;;;;;;;;30.78;21.36;98058.50;5076008;28;19920;-90
2023/04/22 09:10:10;;;;;;;;;;;;;;;31.31;22.09;98061.53;5063878;28;19920;-88
2023/04/22 09:12:37;;;;;;;;;;;;;;;31.82;19.73;98066.97;5071114;28;19921;-87
2023/04/22 09:15:05;;;;;;;;;;;;;;;32.17;20.98;98052.91;5071867;28;19920;-93
2023/04/22 09:17:33;;;;;;;;;;;;;;;31.93;21.55;98058.66;5069081;28;19958;-89
2023/04/22 09:19:59;;;;;;;;;;;;;;;31.65;19.18;98048.81;5068907;28;19944;-88
2023/04/22 09:22:26;;;;;;;;;;;;;;;31.83;21.11;98056.41;5070551;28;19943;-87
2023/04/22 09:24:52;;;;;;;;;;;;;;;31.65;19.83;98048.81;5070361;28;19920;-88
2023/04/22 09:27:22;;;;;;;;;;;;;;;31.12;18.67;98047.94;5066731;28;19924;-87
2023/04/22 09:29:49;;;;;;;;;;;;;;;31.16;19.33;98040.03;5066724;28;19942;-87
2023/04/22 09:32:15;;;;;;;;;;;;;;;30.94;20.81;98043.19;5067944;28;19971;-87
2023/04/22 09:34:46;;;;;;;;;;;;;;;30.60;26.88;98047.28;5077855;28;19958;-87
2023/04/22 09:37:12;;;;;;;;;;;;;;;31.12;20.83;98028.88;5074406;28;19927;-89
2023/04/22 09:39:40;;;;;;;;;;;;;;;31.12;21.04;98031.72;5067134;28;19920;-88
2023/04/22 09:42:06;;;;;;;;;;;;;;;31.17;20.75;98038.78;5064374;28;20291;-88
2023/04/22 09:44:34;;;;;;;;;;;;;;;30.32;21.31;98034.44;5074219;28;19921;-89
2023/04/22 09:47:00;;;;;;;;;;;;;;;29.52;21.22;98036.19;5075700;28;19974;-87
2023/04/22 09:49:26;;;;;;;;;;;;;;;30.35;20.48;98032.75;5068058;28;19916;-89
2023/04/22 09:51:56;;;;;;;;;;;;;;;30.71;22.30;98026.91;5067271;28;19933;-87
2023/04/22 09:54:22;;;;;;;;;;;;;;;31.45;22.64;98020.31;5070104;28;19920;-89
2023/04/22 09:56:50;;;;;;;;;;;;;;;31.98;22.16;98020.28;5063564;28;19928;-89
2023/04/22 09:59:20;;;;;;;;;;;;;;;32.46;22.20;98015.94;5063806;28;19927;-89
2023/04/22 10:01:47;;;;;;;;;;;;;;;33.07;22.67;98013.25;5063381;28;19924;-89
2023/04/22 10:04:13;;;;;;;;;;;;;;;33.08;21.52;98011.97;5068557;28;19952;-90
2023/04/22 10:06:40;;;;;;;;;;;;;;;30.86;21.77;98018.47;5070674;28;19920;-88
2023/04/22 10:09:06;;;;;;;;;;;;;;;31.61;21.13;98014.16;5068058;28;19940;-88
2023/04/22 10:11:33;;;;;;;;;;;;;;;31.03;25.67;98009.09;5069379;28;19925;-90
2023/04/22 10:14:02;;;;;;;;;;;;;;;31.01;22.90;98003.13;5069103;28;19925;-87
2023/04/22 10:16:30;;;;;;;;;;;;;;;31.05;20.37;98008.59;5069792;28;20022;-87
2023/04/22 10:18:58;;;;;;;;;;;;;;;31.29;21.09;98009.38;5062445;28;19989;-89
2023/04/22 10:21:25;;;;;;;;;;;;;;;32.02;20.12;97996.09;5062927;28;19929;-88
2023/04/22 10:23:51;;;;;;;;;;;;;;;32.04;20.22;98001.28;5061435;28;19928;-88
2023/04/22 10:26:36;;;;;;;;;;;;;;;32.18;18.38;98003.34;5062807;28;19931;-88
2023/04/22 10:29:04;;;;;;;;;;;;;;;30.99;18.16;97996.38;5061283;28;19934;-88
2023/04/22 10:31:30;;;;;;;;;;;;;;;29.33;22.01;98004.28;5067518;28;19971;-88
2023/04/22 10:34:07;;;;;;;;;;;;;;;30.95;21.23;97996.53;5071130;28;20426;-88
2023/04/22 10:36:33;;;;;;;;;;;;;;;31.87;19.36;98000.97;5069631;28;19961;-89
2023/04/22 10:38:59;;;;;;;;;;;;;;;32.23;20.63;97999.03;5066508;28;20168;-88
2023/04/22 10:41:29;;;;;;;;;;;;;;;32.77;19.40;97989.03;5068449;28;19962;-88
2023/04/22 10:43:57;;;;;;;;;;;;;;;31.29;25.01;97989.50;5067902;28;19928;-88
2023/04/22 10:46:29;;;;;;;;;;;;;;;29.49;21.14;97997.50;5065019;28;19928;-89
2023/04/22 10:48:55;;;;;;;;;;;;;;;31.21;22.44;97993.97;5067505;28;19951;-88
2023/04/22 10:51:40;;;;;;;;;;;;;;;31.98;18.02;97987.00;5067086;28;19925;-86
2023/04/22 10:54:06;;;;;;;;;;;;;;;32.43;20.82;97982.81;5063303;28;19936;-87
2023/04/22 10:56:32;;;;;;;;;;;;;;;32.24;21.98;97986.38;5068487;28;19929;-87
2023/04/22 10:58:58;;;;;;;;;;;;;;;31.60;20.87;97987.03;5068088;28;19927;-85
2023/04/22 11:01:27;;;;;;;;;;;;;;;32.13;19.86;97989.03;5067619;28;20019;-86
2023/04/22 11:03:53;;;;;;;;;;;;;;;32.80;20.27;97988.81;5065763;28;19920;-86
2023/04/22 11:06:26;;;;;;;;;;;;;;;33.20;18.96;97986.00;5061508;28;20002;-85
2023/04/22 11:09:06;;;;;;;;;;;;;;;33.44;18.95;97977.22;5061342;28;20290;-85
2023/04/22 11:11:32;;;;;;;;;;;;;;;33.19;18.22;97984.41;5055681;28;20364;-85
2023/04/22 11:13:59;;;;;;;;;;;;;;;32.77;19.70;97980.50;5057557;28;19943;-86
2023/04/22 11:16:25;;;;;;;;;;;;;;;33.49;21.13;97979.34;5059802;28;19920;-86
2023/04/22 11:18:51;;;;;;;;;;;;;;;33.95;19.12;97976.47;5064346;28;19950;-86
2023/04/22 11:21:19;;;;;;;;;;;;;;;31.98;25.24;97978.47;5069278;28;19920;-87
2023/04/22 11:23:49;;;;;;;;;;;;;;;30.37;21.75;97965.84;5064163;28;20394;-92
2023/04/22 11:26:15;;;;;;;;;;;;;;;29.75;21.10;97976.88;5069097;28;20408;-86
2023/04/22 11:28:45;;;;;;;;;;;;;;;29.63;24.21;97972.19;5063253;28;19920;-86
2023/04/22 11:31:11;;;;;;;;;;;;;;;31.70;21.36;97960.13;5066934;28;19927;-85
2023/04/22 11:33:38;;;;;;;;;;;;;;;32.43;22.28;97951.53;5061218;28;19924;-84
2023/04/22 11:36:04;;;;;;;;;;;;;;;31.83;19.60;97954.16;5059530;28;19921;-85
2023/04/22 11:38:30;;;;;;;;;;;;;;;32.46;18.91;97947.72;5068526;28;20003;-85
2023/04/22 11:40:57;;;;;;;;;;;;;;;33.18;17.08;97947.94;5055761;28;19925;-85
2023/04/22 11:43:23;;;;;;;;;;;;;;;32.94;19.01;97941.66;5065642;28;19920;-86
2023/04/22 11:45:49;;;;;;;;;;;;;;;33.13;18.73;97940.91;5071451;28;20425;-90
2023/04/22 11:48:15;;;;;;;;;;;;;;;31.83;21.92;97948.50;5067962;28;19920;-87
2023/04/22 11:50:46;;;;;;;;;;;;;;;30.94;25.66;97946.00;5054638;28;19935;-87
2023/04/22 11:53:14;;;;;;;;;;;;;;;32.35;21.59;97938.25;5058916;28;20023;-88
2023/04/22 11:55:41;;;;;;;;;;;;;;;32.67;18.74;97935.09;5055358;28;20050;-88
2023/04/22 11:58:07;;;;;;;;;;;;;;;32.06;17.31;97936.25;5056342;28;19973;-88
2023/04/22 12:00:39;;;;;;;;;;;;;;;32.03;22.02;97928.69;5059131;28;19935;-87
2023/04/22 12:03:16;;;;;;;;;;;;;;;33.27;19.03;97928.66;5064223;28;20438;-88
2023/04/22 12:05:51;;;;;;;;;;;;;;;32.32;18.25;97928.66;5065855;28;19926;-88
2023/04/22 12:08:19;;;;;;;;;;;;;;;30.85;19.79;97931.84;5064526;28;19927;-87
2023/04/22 12:10:45;;;;;;;;;;;;;;;31.36;19.04;97924.66;5068790;28;20411;-88
2023/04/22 12:13:21;;;;;;;;;;;;;;;31.72;17.26;97912.16;5071627;28;22501;-88
2023/04/22 12:15:48;;;;;;;;;;;;;;;32.92;20.07;97915.78;5071278;28;19944;-87
2023/04/22 12:18:14;;;;;;;;;;;;;;;33.52;19.90;97927.06;5065274;28;20379;-87
2023/04/22 12:20:40;;;;;;;;;;;;;;;33.87;19.37;97922.00;5067314;28;20373;-87
2023/04/22 12:23:15;;;;;;;;;;;;;;;32.72;19.64;97928.72;5070207;28;19966;-87
2023/04/22 12:25:41;;;;;;;;;;;;;;;32.83;19.20;97927.31;5073584;28;19935;-87
2023/04/22 12:28:09;;;;;;;;;;;;;;;32.94;20.00;97924.59;5067955;28;19973;-88
2023/04/22 12:30:35;;;;;;;;;;;;;;;33.87;20.75;97927.69;5066493;28;19921;-89
2023/04/22 12:33:01;;;;;;;;;;;;;;;31.92;25.59;97922.81;5074835;28;19927;-89
2023/04/22 12:35:27;;;;;;;;;;;;;;;32.14;19.99;97916.75;5068422;28;19927;-90
2023/04/22 12:37:53;;;;;;;;;;;;;;;33.25;20.50;97919.03;5071689;28;19947;-90
2023/04/22 12:40:19;;;;;;;;;;;;;;;32.39;19.51;97916.09;5070041;28;20444;-90
2023/04/22 12:42:45;;;;;;;;;;;;;;;33.27;19.96;97910.78;5075413;28;19931;-91
2023/04/22 12:45:11;;;;;;;;;;;;;;;34.24;21.75;97913.50;5073906;28;19929;-90